sensor_id;sensor_type;location;lat;lon;timestamp;temperature;humidity
22065;DHT22;11197;53.110;8.468;2022-11-18T00:00:56;6.10;99.90
22065;DHT22;11197;53.110;8.468;2022-11-18T00:03:23;6.10;99.90
22065;DHT22;11197;53.110;8.468;2022-11-18T00:05:56;6.10;99.90
22065;DHT22;11197;53.110;8.468;2022-11-18T00:08:23;6.10;99.90
22065;DHT22;11197;53.110;8.468;2022-11-18T00:10:50;6.10;99.90
22065;DHT22;11197;53.110;8.468;2022-11-18T00:13:16;6.10;99.90
22065;DHT22;11197;53.110;8.468;2022-11-18T00:16:11;6.10;99.90
22065;DHT22;11197;53.110;8.468;2022-11-18T00:18:38;6.10;99.90
22065;DHT22;11197;53.110;8.468;2022-11-18T00:21:06;6.10;99.90
22065;DHT22;11197;53.110;8.468;2022-11-18T00:23:33;6.10;99.90
22065;DHT22;11197;53.110;8.468;2022-11-18T00:26:03;6.10;99.90
22065;DHT22;11197;53.110;8.468;2022-11-18T00:28:30;6.10;99.90
22065;DHT22;11197;53.110;8.468;2022-11-18T00:31:08;6.10;99.90
22065;DHT22;11197;53.110;8.468;2022-11-18T00:33:34;6.00;99.90
22065;DHT22;11197;53.110;8.468;2022-11-18T00:36:03;6.10;99.90
22065;DHT22;11197;53.110;8.468;2022-11-18T00:38:29;6.10;99.90
22065;DHT22;11197;53.110;8.468;2022-11-18T00:41:09;6.10;99.90
22065;DHT22;11197;53.110;8.468;2022-11-18T00:43:36;6.00;99.90
22065;DHT22;11197;53.110;8.468;2022-11-18T00:46:03;6.00;99.90
22065;DHT22;11197;53.110;8.468;2022-11-18T00:48:29;6.10;99.90
22065;DHT22;11197;53.110;8.468;2022-11-18T00:50:58;6.00;99.90
22065;DHT22;11197;53.110;8.468;2022-11-18T00:53:31;6.00;99.90
22065;DHT22;11197;53.110;8.468;2022-11-18T00:55:57;6.00;99.90
22065;DHT22;11197;53.110;8.468;2022-11-18T00:58:22;6.00;99.90
22065;DHT22;11197;53.110;8.468;2022-11-18T01:00:51;6.00;99.90
22065;DHT22;11197;53.110;8.468;2022-11-18T01:03:18;5.90;99.90
22065;DHT22;11197;53.110;8.468;2022-11-18T01:05:44;6.00;99.90
22065;DHT22;11197;53.110;8.468;2022-11-18T01:08:14;5.90;99.90
22065;DHT22;11197;53.110;8.468;2022-11-18T01:10:48;6.00;99.90
22065;DHT22;11197;53.110;8.468;2022-11-18T01:13:17;6.00;99.90
22065;DHT22;11197;53.110;8.468;2022-11-18T01:15:56;6.00;99.90
22065;DHT22;11197;53.110;8.468;2022-11-18T01:18:29;6.00;99.90
22065;DHT22;11197;53.110;8.468;2022-11-18T01:20:59;6.00;99.90
22065;DHT22;11197;53.110;8.468;2022-11-18T01:23:25;6.00;99.90
22065;DHT22;11197;53.110;8.468;2022-11-18T01:25:51;6.00;99.90
22065;DHT22;11197;53.110;8.468;2022-11-18T01:28:18;6.00;99.90
22065;DHT22;11197;53.110;8.468;2022-11-18T01:30:44;6.00;99.90
22065;DHT22;11197;53.110;8.468;2022-11-18T01:33:11;6.00;99.90
22065;DHT22;11197;53.110;8.468;2022-11-18T01:35:42;6.00;99.90
22065;DHT22;11197;53.110;8.468;2022-11-18T01:38:11;6.00;99.90
22065;DHT22;11197;53.110;8.468;2022-11-18T01:40:38;5.90;99.90
22065;DHT22;11197;53.110;8.468;2022-11-18T01:43:12;5.90;99.90
22065;DHT22;11197;53.110;8.468;2022-11-18T01:45:43;5.90;99.90
22065;DHT22;11197;53.110;8.468;2022-11-18T01:48:15;5.90;99.90
22065;DHT22;11197;53.110;8.468;2022-11-18T01:50:51;5.90;99.90
22065;DHT22;11197;53.110;8.468;2022-11-18T01:53:30;5.90;99.90
22065;DHT22;11197;53.110;8.468;2022-11-18T01:55:59;5.90;99.90
22065;DHT22;11197;53.110;8.468;2022-11-18T01:58:35;5.90;99.90
22065;DHT22;11197;53.110;8.468;2022-11-18T02:01:03;5.90;99.90
22065;DHT22;11197;53.110;8.468;2022-11-18T02:03:31;5.90;99.90
22065;DHT22;11197;53.110;8.468;2022-11-18T02:05:58;5.90;99.90
22065;DHT22;11197;53.110;8.468;2022-11-18T02:08:25;5.90;99.90
22065;DHT22;11197;53.110;8.468;2022-11-18T02:10:51;5.90;99.90
22065;DHT22;11197;53.110;8.468;2022-11-18T02:13:21;5.90;99.90
22065;DHT22;11197;53.110;8.468;2022-11-18T02:16:16;5.90;99.90
22065;DHT22;11197;53.110;8.468;2022-11-18T02:18:59;5.90;99.90
22065;DHT22;11197;53.110;8.468;2022-11-18T02:21:35;5.90;99.90
22065;DHT22;11197;53.110;8.468;2022-11-18T02:29:27;5.80;99.90
22065;DHT22;11197;53.110;8.468;2022-11-18T02:31:59;5.80;99.90
22065;DHT22;11197;53.110;8.468;2022-11-18T02:37:35;5.90;99.90
22065;DHT22;11197;53.110;8.468;2022-11-18T02:42:57;5.90;99.90
22065;DHT22;11197;53.110;8.468;2022-11-18T02:45:25;5.90;99.90
22065;DHT22;11197;53.110;8.468;2022-11-18T02:47:53;5.80;99.90
22065;DHT22;11197;53.110;8.468;2022-11-18T02:50:23;5.90;99.90
22065;DHT22;11197;53.110;8.468;2022-11-18T02:52:53;5.80;99.90
22065;DHT22;11197;53.110;8.468;2022-11-18T02:55:21;5.80;99.90
22065;DHT22;11197;53.110;8.468;2022-11-18T02:57:48;5.80;99.90
22065;DHT22;11197;53.110;8.468;2022-11-18T03:00:15;5.80;99.90
22065;DHT22;11197;53.110;8.468;2022-11-18T03:02:43;5.80;99.90
22065;DHT22;11197;53.110;8.468;2022-11-18T03:05:16;5.80;99.90
22065;DHT22;11197;53.110;8.468;2022-11-18T03:07:47;5.90;99.90
22065;DHT22;11197;53.110;8.468;2022-11-18T03:10:13;5.80;99.90
22065;DHT22;11197;53.110;8.468;2022-11-18T03:20:48;5.80;99.90
22065;DHT22;11197;53.110;8.468;2022-11-18T03:33:37;5.70;99.90
22065;DHT22;11197;53.110;8.468;2022-11-18T03:36:05;5.70;99.90
22065;DHT22;11197;53.110;8.468;2022-11-18T03:38:36;5.70;99.90
22065;DHT22;11197;53.110;8.468;2022-11-18T03:41:06;5.60;99.90
22065;DHT22;11197;53.110;8.468;2022-11-18T03:43:40;5.60;99.90
22065;DHT22;11197;53.110;8.468;2022-11-18T03:46:13;5.60;99.90
22065;DHT22;11197;53.110;8.468;2022-11-18T03:48:47;5.60;99.90
22065;DHT22;11197;53.110;8.468;2022-11-18T03:51:17;5.60;99.90
22065;DHT22;11197;53.110;8.468;2022-11-18T03:53:57;5.60;99.90
22065;DHT22;11197;53.110;8.468;2022-11-18T03:56:29;5.60;99.90
22065;DHT22;11197;53.110;8.468;2022-11-18T03:59:15;5.60;99.90
22065;DHT22;11197;53.110;8.468;2022-11-18T04:01:54;5.60;99.90
22065;DHT22;11197;53.110;8.468;2022-11-18T04:04:22;5.60;99.90
22065;DHT22;11197;53.110;8.468;2022-11-18T04:07:05;5.50;99.90
22065;DHT22;11197;53.110;8.468;2022-11-18T04:09:40;5.50;99.90
22065;DHT22;11197;53.110;8.468;2022-11-18T04:12:12;5.50;99.90
22065;DHT22;11197;53.110;8.468;2022-11-18T04:14:41;5.50;99.90
22065;DHT22;11197;53.110;8.468;2022-11-18T04:17:12;5.50;99.90
22065;DHT22;11197;53.110;8.468;2022-11-18T04:19:39;5.50;99.90
22065;DHT22;11197;53.110;8.468;2022-11-18T04:22:05;5.40;99.90
22065;DHT22;11197;53.110;8.468;2022-11-18T04:24:31;5.40;99.90
22065;DHT22;11197;53.110;8.468;2022-11-18T04:26:58;5.50;99.90
22065;DHT22;11197;53.110;8.468;2022-11-18T04:29:24;5.50;99.90
22065;DHT22;11197;53.110;8.468;2022-11-18T04:31:50;5.50;99.90
22065;DHT22;11197;53.110;8.468;2022-11-18T04:34:16;5.50;99.90
22065;DHT22;11197;53.110;8.468;2022-11-18T04:36:41;5.50;99.90
22065;DHT22;11197;53.110;8.468;2022-11-18T04:39:07;5.40;99.90
22065;DHT22;11197;53.110;8.468;2022-11-18T04:41:33;5.40;99.90
22065;DHT22;11197;53.110;8.468;2022-11-18T04:44:17;5.50;99.90
22065;DHT22;11197;53.110;8.468;2022-11-18T04:46:44;5.40;99.90
22065;DHT22;11197;53.110;8.468;2022-11-18T04:49:11;5.40;99.90
22065;DHT22;11197;53.110;8.468;2022-11-18T04:51:39;5.40;99.90
22065;DHT22;11197;53.110;8.468;2022-11-18T04:54:05;5.30;99.90
22065;DHT22;11197;53.110;8.468;2022-11-18T04:56:31;5.30;99.90
22065;DHT22;11197;53.110;8.468;2022-11-18T04:58:58;5.30;99.90
22065;DHT22;11197;53.110;8.468;2022-11-18T05:01:26;5.30;99.90
22065;DHT22;11197;53.110;8.468;2022-11-18T05:03:54;5.30;99.90
22065;DHT22;11197;53.110;8.468;2022-11-18T05:06:20;5.30;99.90
22065;DHT22;11197;53.110;8.468;2022-11-18T05:08:46;5.30;99.90
22065;DHT22;11197;53.110;8.468;2022-11-18T05:11:13;5.30;99.90
22065;DHT22;11197;53.110;8.468;2022-11-18T05:13:57;5.30;99.90
22065;DHT22;11197;53.110;8.468;2022-11-18T05:16:23;5.30;99.90
22065;DHT22;11197;53.110;8.468;2022-11-18T05:18:49;5.20;99.90
22065;DHT22;11197;53.110;8.468;2022-11-18T05:21:18;5.20;99.90
22065;DHT22;11197;53.110;8.468;2022-11-18T05:23:44;5.20;99.90
22065;DHT22;11197;53.110;8.468;2022-11-18T05:26:10;5.20;99.90
22065;DHT22;11197;53.110;8.468;2022-11-18T05:28:37;5.10;99.90
22065;DHT22;11197;53.110;8.468;2022-11-18T05:31:11;5.10;99.90
22065;DHT22;11197;53.110;8.468;2022-11-18T05:33:38;5.10;99.90
22065;DHT22;11197;53.110;8.468;2022-11-18T05:36:05;5.10;99.90
22065;DHT22;11197;53.110;8.468;2022-11-18T05:38:33;5.10;99.90
22065;DHT22;11197;53.110;8.468;2022-11-18T05:40:59;5.10;99.90
22065;DHT22;11197;53.110;8.468;2022-11-18T05:43:25;5.10;99.90
22065;DHT22;11197;53.110;8.468;2022-11-18T05:45:51;5.00;99.90
22065;DHT22;11197;53.110;8.468;2022-11-18T05:48:17;5.00;99.90
22065;DHT22;11197;53.110;8.468;2022-11-18T05:50:48;5.00;99.90
22065;DHT22;11197;53.110;8.468;2022-11-18T05:53:16;5.00;99.90
22065;DHT22;11197;53.110;8.468;2022-11-18T05:56:03;4.90;99.90
22065;DHT22;11197;53.110;8.468;2022-11-18T05:58:30;4.90;99.90
22065;DHT22;11197;53.110;8.468;2022-11-18T06:01:02;4.90;99.90
22065;DHT22;11197;53.110;8.468;2022-11-18T06:03:30;4.90;99.90
22065;DHT22;11197;53.110;8.468;2022-11-18T06:06:00;5.10;99.90
22065;DHT22;11197;53.110;8.468;2022-11-18T06:08:31;5.10;99.90
22065;DHT22;11197;53.110;8.468;2022-11-18T06:10:59;5.10;99.90
22065;DHT22;11197;53.110;8.468;2022-11-18T06:13:30;5.10;99.90
22065;DHT22;11197;53.110;8.468;2022-11-18T06:15:58;5.10;99.90
22065;DHT22;11197;53.110;8.468;2022-11-18T06:18:27;5.00;99.90
22065;DHT22;11197;53.110;8.468;2022-11-18T06:20:57;5.00;99.90
22065;DHT22;11197;53.110;8.468;2022-11-18T06:23:25;4.90;99.90
22065;DHT22;11197;53.110;8.468;2022-11-18T06:25:53;4.80;99.90
22065;DHT22;11197;53.110;8.468;2022-11-18T06:28:19;4.90;99.90
22065;DHT22;11197;53.110;8.468;2022-11-18T06:30:46;4.90;99.90
22065;DHT22;11197;53.110;8.468;2022-11-18T06:33:12;4.90;99.90
22065;DHT22;11197;53.110;8.468;2022-11-18T06:35:38;5.20;99.90
22065;DHT22;11197;53.110;8.468;2022-11-18T06:38:03;5.20;99.90
22065;DHT22;11197;53.110;8.468;2022-11-18T06:40:30;5.20;99.90
22065;DHT22;11197;53.110;8.468;2022-11-18T06:42:56;5.10;99.90
22065;DHT22;11197;53.110;8.468;2022-11-18T06:45:40;5.10;99.90
22065;DHT22;11197;53.110;8.468;2022-11-18T06:48:26;5.00;99.90
22065;DHT22;11197;53.110;8.468;2022-11-18T06:50:52;5.00;99.90
22065;DHT22;11197;53.110;8.468;2022-11-18T06:53:17;5.00;99.90
22065;DHT22;11197;53.110;8.468;2022-11-18T06:55:43;5.00;99.90
22065;DHT22;11197;53.110;8.468;2022-11-18T06:58:09;5.00;99.90
22065;DHT22;11197;53.110;8.468;2022-11-18T07:00:35;4.90;99.90
22065;DHT22;11197;53.110;8.468;2022-11-18T07:03:01;4.90;99.90
22065;DHT22;11197;53.110;8.468;2022-11-18T07:05:27;4.90;99.90
22065;DHT22;11197;53.110;8.468;2022-11-18T07:07:52;4.90;99.90
22065;DHT22;11197;53.110;8.468;2022-11-18T07:10:19;6.50;99.90
22065;DHT22;11197;53.110;8.468;2022-11-18T07:12:44;7.40;99.90
22065;DHT22;11197;53.110;8.468;2022-11-18T07:15:10;8.10;99.90
22065;DHT22;11197;53.110;8.468;2022-11-18T07:17:36;8.10;99.90
22065;DHT22;11197;53.110;8.468;2022-11-18T07:20:02;7.90;99.90
22065;DHT22;11197;53.110;8.468;2022-11-18T07:22:28;7.50;99.90
22065;DHT22;11197;53.110;8.468;2022-11-18T07:24:54;7.10;99.90
22065;DHT22;11197;53.110;8.468;2022-11-18T07:27:20;6.80;99.90
22065;DHT22;11197;53.110;8.468;2022-11-18T07:29:45;6.40;99.90
22065;DHT22;11197;53.110;8.468;2022-11-18T07:32:11;6.20;99.90
22065;DHT22;11197;53.110;8.468;2022-11-18T07:34:37;6.00;99.90
22065;DHT22;11197;53.110;8.468;2022-11-18T07:37:03;5.80;99.90
22065;DHT22;11197;53.110;8.468;2022-11-18T07:39:29;5.70;99.90
22065;DHT22;11197;53.110;8.468;2022-11-18T07:41:55;5.60;99.90
22065;DHT22;11197;53.110;8.468;2022-11-18T07:44:21;5.50;99.90
22065;DHT22;11197;53.110;8.468;2022-11-18T07:46:46;5.40;99.90
22065;DHT22;11197;53.110;8.468;2022-11-18T07:49:12;5.40;99.90
22065;DHT22;11197;53.110;8.468;2022-11-18T07:51:39;5.30;99.90
22065;DHT22;11197;53.110;8.468;2022-11-18T07:54:10;5.20;99.90
22065;DHT22;11197;53.110;8.468;2022-11-18T07:56:36;5.20;99.90
22065;DHT22;11197;53.110;8.468;2022-11-18T07:59:03;5.10;99.90
22065;DHT22;11197;53.110;8.468;2022-11-18T08:01:29;5.10;99.90
22065;DHT22;11197;53.110;8.468;2022-11-18T08:04:04;5.10;99.90
22065;DHT22;11197;53.110;8.468;2022-11-18T08:06:31;5.00;99.90
22065;DHT22;11197;53.110;8.468;2022-11-18T08:08:57;5.00;99.90
22065;DHT22;11197;53.110;8.468;2022-11-18T08:11:23;5.10;99.90
22065;DHT22;11197;53.110;8.468;2022-11-18T08:13:50;5.20;99.90
22065;DHT22;11197;53.110;8.468;2022-11-18T08:16:18;5.30;99.90
22065;DHT22;11197;53.110;8.468;2022-11-18T08:18:44;5.10;99.90
22065;DHT22;11197;53.110;8.468;2022-11-18T08:21:11;5.00;99.90
22065;DHT22;11197;53.110;8.468;2022-11-18T08:23:38;5.00;99.90
22065;DHT22;11197;53.110;8.468;2022-11-18T08:26:09;4.90;99.90
22065;DHT22;11197;53.110;8.468;2022-11-18T08:28:37;4.90;99.90
22065;DHT22;11197;53.110;8.468;2022-11-18T08:31:29;4.80;99.90
22065;DHT22;11197;53.110;8.468;2022-11-18T08:33:57;4.80;99.90
22065;DHT22;11197;53.110;8.468;2022-11-18T08:36:25;4.70;99.90
22065;DHT22;11197;53.110;8.468;2022-11-18T08:38:53;4.60;99.90
22065;DHT22;11197;53.110;8.468;2022-11-18T08:41:41;4.60;99.90
22065;DHT22;11197;53.110;8.468;2022-11-18T08:44:10;4.70;99.90
22065;DHT22;11197;53.110;8.468;2022-11-18T08:46:36;4.60;99.90
22065;DHT22;11197;53.110;8.468;2022-11-18T08:49:02;4.60;99.90
22065;DHT22;11197;53.110;8.468;2022-11-18T08:51:28;4.60;99.90
22065;DHT22;11197;53.110;8.468;2022-11-18T08:53:54;4.50;99.90
22065;DHT22;11197;53.110;8.468;2022-11-18T08:56:22;4.90;99.90
22065;DHT22;11197;53.110;8.468;2022-11-18T08:58:48;5.10;99.90
22065;DHT22;11197;53.110;8.468;2022-11-18T09:01:14;5.00;99.90
22065;DHT22;11197;53.110;8.468;2022-11-18T09:03:40;5.00;99.90
22065;DHT22;11197;53.110;8.468;2022-11-18T09:06:20;4.90;99.90
22065;DHT22;11197;53.110;8.468;2022-11-18T09:08:47;4.90;99.90
22065;DHT22;11197;53.110;8.468;2022-11-18T09:11:18;4.90;99.90
22065;DHT22;11197;53.110;8.468;2022-11-18T09:13:44;4.80;99.90
22065;DHT22;11197;53.110;8.468;2022-11-18T09:16:11;4.70;99.90
22065;DHT22;11197;53.110;8.468;2022-11-18T09:18:37;4.70;99.90
22065;DHT22;11197;53.110;8.468;2022-11-18T09:21:05;4.60;99.90
22065;DHT22;11197;53.110;8.468;2022-11-18T09:23:34;4.60;99.90
22065;DHT22;11197;53.110;8.468;2022-11-18T09:26:05;4.50;99.90
22065;DHT22;11197;53.110;8.468;2022-11-18T09:28:32;4.60;99.90
22065;DHT22;11197;53.110;8.468;2022-11-18T09:30:59;4.50;99.90
22065;DHT22;11197;53.110;8.468;2022-11-18T09:33:27;4.50;99.90
22065;DHT22;11197;53.110;8.468;2022-11-18T09:35:54;4.80;99.90
22065;DHT22;11197;53.110;8.468;2022-11-18T09:38:19;4.90;99.90
22065;DHT22;11197;53.110;8.468;2022-11-18T09:46:28;5.00;99.90
22065;DHT22;11197;53.110;8.468;2022-11-18T09:49:02;5.10;99.90
22065;DHT22;11197;53.110;8.468;2022-11-18T09:51:43;5.00;99.90
22065;DHT22;11197;53.110;8.468;2022-11-18T09:54:13;5.00;99.90
22065;DHT22;11197;53.110;8.468;2022-11-18T09:56:45;4.90;99.90
22065;DHT22;11197;53.110;8.468;2022-11-18T09:59:14;4.90;99.90
22065;DHT22;11197;53.110;8.468;2022-11-18T10:01:41;4.90;99.90
22065;DHT22;11197;53.110;8.468;2022-11-18T10:04:18;4.90;99.90
22065;DHT22;11197;53.110;8.468;2022-11-18T10:06:45;4.90;99.90
22065;DHT22;11197;53.110;8.468;2022-11-18T10:09:38;4.90;99.90
22065;DHT22;11197;53.110;8.468;2022-11-18T10:20:24;4.80;99.90
22065;DHT22;11197;53.110;8.468;2022-11-18T10:22:55;4.80;99.90
22065;DHT22;11197;53.110;8.468;2022-11-18T10:25:22;4.80;99.90
22065;DHT22;11197;53.110;8.468;2022-11-18T10:27:50;4.70;99.90
22065;DHT22;11197;53.110;8.468;2022-11-18T10:30:19;4.70;99.90
22065;DHT22;11197;53.110;8.468;2022-11-18T10:33:30;4.70;99.90
22065;DHT22;11197;53.110;8.468;2022-11-18T10:38:40;4.60;99.90
22065;DHT22;11197;53.110;8.468;2022-11-18T10:41:14;4.60;99.90
22065;DHT22;11197;53.110;8.468;2022-11-18T10:43:52;4.70;99.90
22065;DHT22;11197;53.110;8.468;2022-11-18T10:46:28;4.70;99.90
22065;DHT22;11197;53.110;8.468;2022-11-18T10:49:11;4.80;99.90
22065;DHT22;11197;53.110;8.468;2022-11-18T10:51:46;4.70;99.90
22065;DHT22;11197;53.110;8.468;2022-11-18T10:54:21;4.90;99.90
22065;DHT22;11197;53.110;8.468;2022-11-18T10:56:56;4.80;99.90
22065;DHT22;11197;53.110;8.468;2022-11-18T10:59:30;4.80;99.90
22065;DHT22;11197;53.110;8.468;2022-11-18T11:02:29;4.80;99.90
22065;DHT22;11197;53.110;8.468;2022-11-18T11:04:57;4.80;99.90
22065;DHT22;11197;53.110;8.468;2022-11-18T11:07:31;4.80;99.90
22065;DHT22;11197;53.110;8.468;2022-11-18T11:10:18;4.80;99.90
22065;DHT22;11197;53.110;8.468;2022-11-18T11:12:52;4.80;99.90
22065;DHT22;11197;53.110;8.468;2022-11-18T11:15:35;4.80;99.90
22065;DHT22;11197;53.110;8.468;2022-11-18T11:18:05;4.80;99.90
22065;DHT22;11197;53.110;8.468;2022-11-18T11:20:53;4.80;99.90
22065;DHT22;11197;53.110;8.468;2022-11-18T11:23:19;4.70;99.90
22065;DHT22;11197;53.110;8.468;2022-11-18T11:25:56;4.70;99.90
22065;DHT22;11197;53.110;8.468;2022-11-18T11:28:32;4.70;99.90
22065;DHT22;11197;53.110;8.468;2022-11-18T11:31:36;4.70;99.90
22065;DHT22;11197;53.110;8.468;2022-11-18T11:47:38;4.70;99.90
22065;DHT22;11197;53.110;8.468;2022-11-18T11:53:56;4.70;99.90
22065;DHT22;11197;53.110;8.468;2022-11-18T11:56:49;4.70;99.90
22065;DHT22;11197;53.110;8.468;2022-11-18T12:02:34;4.90;99.90
22065;DHT22;11197;53.110;8.468;2022-11-18T12:05:31;5.00;99.90
22065;DHT22;11197;53.110;8.468;2022-11-18T12:08:03;5.00;99.90
22065;DHT22;11197;53.110;8.468;2022-11-18T12:18:48;4.70;99.90
22065;DHT22;11197;53.110;8.468;2022-11-18T12:24:31;5.00;99.90
22065;DHT22;11197;53.110;8.468;2022-11-18T12:27:09;5.10;99.90
22065;DHT22;11197;53.110;8.468;2022-11-18T12:29:51;5.10;99.90
22065;DHT22;11197;53.110;8.468;2022-11-18T12:32:34;5.10;99.90
22065;DHT22;11197;53.110;8.468;2022-11-18T12:35:02;5.00;99.90
22065;DHT22;11197;53.110;8.468;2022-11-18T12:42:47;4.70;99.90
22065;DHT22;11197;53.110;8.468;2022-11-18T12:45:52;4.60;99.90
22065;DHT22;11197;53.110;8.468;2022-11-18T12:48:51;4.60;99.90
22065;DHT22;11197;53.110;8.468;2022-11-18T12:53:53;4.50;99.90
22065;DHT22;11197;53.110;8.468;2022-11-18T12:56:27;4.50;99.90
22065;DHT22;11197;53.110;8.468;2022-11-18T12:58:58;4.50;99.90
22065;DHT22;11197;53.110;8.468;2022-11-18T13:01:30;4.50;99.90
22065;DHT22;11197;53.110;8.468;2022-11-18T13:04:14;4.50;99.90
22065;DHT22;11197;53.110;8.468;2022-11-18T13:06:41;4.40;99.90
22065;DHT22;11197;53.110;8.468;2022-11-18T13:09:15;4.40;99.90
22065;DHT22;11197;53.110;8.468;2022-11-18T13:12:06;4.30;99.90
22065;DHT22;11197;53.110;8.468;2022-11-18T13:14:41;4.30;99.90
22065;DHT22;11197;53.110;8.468;2022-11-18T13:17:31;4.20;99.90
22065;DHT22;11197;53.110;8.468;2022-11-18T13:20:25;4.20;99.90
22065;DHT22;11197;53.110;8.468;2022-11-18T13:23:03;4.20;99.90
22065;DHT22;11197;53.110;8.468;2022-11-18T13:25:49;4.20;99.90
22065;DHT22;11197;53.110;8.468;2022-11-18T13:34:21;4.20;99.90
22065;DHT22;11197;53.110;8.468;2022-11-18T13:36:49;4.20;99.90
22065;DHT22;11197;53.110;8.468;2022-11-18T13:39:28;4.20;99.90
22065;DHT22;11197;53.110;8.468;2022-11-18T13:42:03;4.10;99.90
22065;DHT22;11197;53.110;8.468;2022-11-18T13:44:32;4.10;99.90
22065;DHT22;11197;53.110;8.468;2022-11-18T13:49:43;4.00;99.90
22065;DHT22;11197;53.110;8.468;2022-11-18T13:52:17;4.00;99.90
22065;DHT22;11197;53.110;8.468;2022-11-18T13:54:45;3.90;99.90
22065;DHT22;11197;53.110;8.468;2022-11-18T13:57:19;3.90;99.90
22065;DHT22;11197;53.110;8.468;2022-11-18T13:59:47;3.90;99.90
22065;DHT22;11197;53.110;8.468;2022-11-18T14:02:15;3.80;99.90
22065;DHT22;11197;53.110;8.468;2022-11-18T14:04:54;3.80;99.90
22065;DHT22;11197;53.110;8.468;2022-11-18T14:07:32;3.80;99.90
22065;DHT22;11197;53.110;8.468;2022-11-18T14:10:03;3.80;99.90
22065;DHT22;11197;53.110;8.468;2022-11-18T14:12:32;3.80;99.90
22065;DHT22;11197;53.110;8.468;2022-11-18T14:17:50;3.80;99.90
22065;DHT22;11197;53.110;8.468;2022-11-18T14:20:18;3.90;99.90
22065;DHT22;11197;53.110;8.468;2022-11-18T14:22:45;3.80;99.90
22065;DHT22;11197;53.110;8.468;2022-11-18T14:25:16;3.80;99.90
22065;DHT22;11197;53.110;8.468;2022-11-18T14:27:45;3.80;99.90
22065;DHT22;11197;53.110;8.468;2022-11-18T14:30:35;3.80;99.90
22065;DHT22;11197;53.110;8.468;2022-11-18T14:33:18;3.80;99.90
22065;DHT22;11197;53.110;8.468;2022-11-18T14:38:20;3.80;99.90
22065;DHT22;11197;53.110;8.468;2022-11-18T14:40:59;3.70;99.90
22065;DHT22;11197;53.110;8.468;2022-11-18T14:43:26;3.70;99.90
22065;DHT22;11197;53.110;8.468;2022-11-18T14:45:57;3.60;99.90
22065;DHT22;11197;53.110;8.468;2022-11-18T14:48:24;3.60;99.90
22065;DHT22;11197;53.110;8.468;2022-11-18T14:50:50;3.70;99.90
22065;DHT22;11197;53.110;8.468;2022-11-18T14:53:18;3.70;99.90
22065;DHT22;11197;53.110;8.468;2022-11-18T14:55:47;3.70;99.90
22065;DHT22;11197;53.110;8.468;2022-11-18T14:58:15;3.60;99.90
22065;DHT22;11197;53.110;8.468;2022-11-18T15:00:42;3.70;99.90
22065;DHT22;11197;53.110;8.468;2022-11-18T15:03:09;3.70;99.90
22065;DHT22;11197;53.110;8.468;2022-11-18T15:05:34;3.60;99.90
22065;DHT22;11197;53.110;8.468;2022-11-18T15:08:02;3.60;99.90
22065;DHT22;11197;53.110;8.468;2022-11-18T15:10:28;3.60;99.90
22065;DHT22;11197;53.110;8.468;2022-11-18T15:12:54;3.60;99.90
22065;DHT22;11197;53.110;8.468;2022-11-18T15:15:20;3.60;99.90
22065;DHT22;11197;53.110;8.468;2022-11-18T15:17:46;3.50;99.90
22065;DHT22;11197;53.110;8.468;2022-11-18T15:20:15;3.50;99.90
22065;DHT22;11197;53.110;8.468;2022-11-18T15:22:41;3.50;99.90
22065;DHT22;11197;53.110;8.468;2022-11-18T15:25:08;3.50;99.90
22065;DHT22;11197;53.110;8.468;2022-11-18T15:27:34;3.50;99.90
22065;DHT22;11197;53.110;8.468;2022-11-18T15:30:00;3.40;99.90
22065;DHT22;11197;53.110;8.468;2022-11-18T15:32:26;3.50;99.90
22065;DHT22;11197;53.110;8.468;2022-11-18T15:34:52;3.50;99.90
22065;DHT22;11197;53.110;8.468;2022-11-18T15:37:18;3.50;99.90
22065;DHT22;11197;53.110;8.468;2022-11-18T15:39:44;3.40;99.90
22065;DHT22;11197;53.110;8.468;2022-11-18T15:42:10;3.40;99.90
22065;DHT22;11197;53.110;8.468;2022-11-18T15:44:36;3.40;99.90
22065;DHT22;11197;53.110;8.468;2022-11-18T15:47:02;3.40;99.90
22065;DHT22;11197;53.110;8.468;2022-11-18T15:49:28;3.40;99.90
22065;DHT22;11197;53.110;8.468;2022-11-18T15:51:54;3.50;99.90
22065;DHT22;11197;53.110;8.468;2022-11-18T15:54:20;3.40;99.90
22065;DHT22;11197;53.110;8.468;2022-11-18T15:56:46;3.40;99.90
22065;DHT22;11197;53.110;8.468;2022-11-18T15:59:13;3.50;99.90
22065;DHT22;11197;53.110;8.468;2022-11-18T16:01:41;3.40;99.90
22065;DHT22;11197;53.110;8.468;2022-11-18T16:04:09;3.40;99.90
22065;DHT22;11197;53.110;8.468;2022-11-18T16:06:35;3.40;99.90
22065;DHT22;11197;53.110;8.468;2022-11-18T16:09:02;3.40;99.90
22065;DHT22;11197;53.110;8.468;2022-11-18T16:11:29;3.40;99.90
22065;DHT22;11197;53.110;8.468;2022-11-18T16:14:15;3.40;99.90
22065;DHT22;11197;53.110;8.468;2022-11-18T16:16:42;3.30;99.90
22065;DHT22;11197;53.110;8.468;2022-11-18T16:19:11;3.30;99.90
22065;DHT22;11197;53.110;8.468;2022-11-18T16:21:41;3.40;99.90
22065;DHT22;11197;53.110;8.468;2022-11-18T16:24:11;3.30;99.90
22065;DHT22;11197;53.110;8.468;2022-11-18T16:26:37;3.30;99.90
22065;DHT22;11197;53.110;8.468;2022-11-18T16:29:05;3.30;99.90
22065;DHT22;11197;53.110;8.468;2022-11-18T16:31:31;3.30;99.90
22065;DHT22;11197;53.110;8.468;2022-11-18T16:34:16;3.20;99.90
22065;DHT22;11197;53.110;8.468;2022-11-18T16:36:44;3.20;99.90
22065;DHT22;11197;53.110;8.468;2022-11-18T16:39:15;3.20;99.90
22065;DHT22;11197;53.110;8.468;2022-11-18T16:41:43;3.20;99.90
22065;DHT22;11197;53.110;8.468;2022-11-18T16:44:12;3.20;99.90
22065;DHT22;11197;53.110;8.468;2022-11-18T16:46:39;3.10;99.90
22065;DHT22;11197;53.110;8.468;2022-11-18T16:49:06;3.20;99.90
22065;DHT22;11197;53.110;8.468;2022-11-18T16:51:35;3.20;99.90
22065;DHT22;11197;53.110;8.468;2022-11-18T16:54:03;3.20;99.90
22065;DHT22;11197;53.110;8.468;2022-11-18T16:56:32;3.20;99.90
22065;DHT22;11197;53.110;8.468;2022-11-18T17:01:26;3.30;99.90
22065;DHT22;11197;53.110;8.468;2022-11-18T17:03:53;3.30;99.90
22065;DHT22;11197;53.110;8.468;2022-11-18T17:06:20;3.20;99.90
22065;DHT22;11197;53.110;8.468;2022-11-18T17:08:48;3.20;99.90
22065;DHT22;11197;53.110;8.468;2022-11-18T17:11:15;3.20;99.90
22065;DHT22;11197;53.110;8.468;2022-11-18T17:13:41;3.20;99.90
22065;DHT22;11197;53.110;8.468;2022-11-18T17:16:13;3.20;99.90
22065;DHT22;11197;53.110;8.468;2022-11-18T17:18:39;3.20;99.90
22065;DHT22;11197;53.110;8.468;2022-11-18T17:21:16;3.20;99.90
22065;DHT22;11197;53.110;8.468;2022-11-18T17:23:43;3.10;99.90
22065;DHT22;11197;53.110;8.468;2022-11-18T17:26:11;3.40;99.90
22065;DHT22;11197;53.110;8.468;2022-11-18T17:28:37;4.50;99.90
22065;DHT22;11197;53.110;8.468;2022-11-18T17:31:11;4.60;99.90
22065;DHT22;11197;53.110;8.468;2022-11-18T17:33:37;4.50;99.90
22065;DHT22;11197;53.110;8.468;2022-11-18T17:36:12;4.30;99.90
22065;DHT22;11197;53.110;8.468;2022-11-18T17:38:41;4.10;99.90
22065;DHT22;11197;53.110;8.468;2022-11-18T17:41:09;3.90;99.90
22065;DHT22;11197;53.110;8.468;2022-11-18T17:44:00;3.70;99.90
22065;DHT22;11197;53.110;8.468;2022-11-18T17:46:26;3.60;99.90
22065;DHT22;11197;53.110;8.468;2022-11-18T17:48:56;3.50;99.90